Portada
METAR-TAF:

METAR-TAF

Aeroports :

Port Hedland, Austràlia

latitud: 20-06S, longitud: 119-34E, altitud: 9 m

Observació

L'informe es va fer fa 36 minuts, a les 16:30 UTC
Vent 10 kt del Oest
Temperatura 27°C
Humitat 84%
Pressió 1011 hPa
Visibilitat 10 km o més

METAR: YPPD 191630Z AUTO 27010KT 9999 // NCD 27/24 Q1011 RF00.0/000.0

Hora: 01:06 (17:06 UTC)

Pronòstic

L'informe es va fer fa 6 hores i 14 minuts, a les 10:52 UTC
Pronòstic vàlid del 19 a les 12 UTC al 20 a les 12 UTC
Vent 12 kt del Oest
Visibilitat 10 km o més
sense núvols per sota de 1500 mi sense presència de cumulonimbus.
A partir de les 19 a les 1500 UTC
Vent 12 kt del Sud
Visibilitat 10 km o més
sense núvols per sota de 1500 mi sense presència de cumulonimbus.
A partir de les 19 a les 2300 UTC
Vent 14 kt del Sud-Est
Visibilitat 10 km o més
sense núvols per sota de 1500 mi sense presència de cumulonimbus.

TAF: YPPD 191052Z 1912/2012 27012KT CAVOK FM191500 17012KT CAVOK FM192300 14014KT CAVOK

Observacions i pronòstics meteorològics de més de 4000 aeroports (METAR i TAF).

Les estacions disponibles són els punts grocs i vermells al mapa.

Posi el ratolí al punt desitjat per veure el nom de l'estació.

Feu clic per veure les observacions i els pronòstics meteorològics.

Per canviar el mapa: feu clic els botons verds amb una creu de color negre per apropar; al botó verd amb un guió per allunyar la imatge; o en les fletxes verdes per a mapes adjacents.


METAR-TAF: